Time;durP1;ratioP1;P1;durP2;ratioP2;P2;SDS_P1;SDS_P2;PMS_P1;PMS_P2;Temp;Humidity;BMP_temperature;BMP_pressure;BME280_temperature;BME280_humidity;BME280_pressure;Samples;Min_cycle;Max_cycle;Signal;HPM_P1;HPM_P2
2023/09/13 00:00:37;;;;;;;5.78;5.22;;;16.20;99.90;;;;;;5227871;28;20056;-75
2023/09/13 00:03:08;;;;;;;6.65;5.93;;;16.00;99.90;;;;;;5227517;28;20029;-75
2023/09/13 00:05:42;;;;;;;6.55;5.85;;;16.10;99.90;;;;;;5226404;28;20021;-76
2023/09/13 00:08:13;;;;;;;6.60;6.10;;;16.00;99.90;;;;;;5227653;28;20017;-75
2023/09/13 00:10:47;;;;;;;6.65;6.10;;;16.00;99.90;;;;;;5227596;28;20021;-76
2023/09/13 00:13:18;;;;;;;6.22;5.72;;;16.00;99.90;;;;;;5227585;28;20021;-75
2023/09/13 00:15:49;;;;;;;7.15;5.95;;;16.00;99.90;;;;;;5227126;28;20103;-76
2023/09/13 00:18:20;;;;;;;6.35;5.85;;;16.00;99.90;;;;;;5227266;28;20032;-77
2023/09/13 00:20:54;;;;;;;7.03;6.40;;;16.00;99.90;;;;;;5226001;28;20029;-78
2023/09/13 00:23:25;;;;;;;6.10;5.60;;;16.10;99.90;;;;;;5226106;28;20388;-75
2023/09/13 00:25:56;;;;;;;6.88;6.25;;;16.30;99.90;;;;;;5226229;28;20111;-76
2023/09/13 00:28:27;;;;;;;6.68;6.13;;;16.20;99.90;;;;;;5225896;28;20427;-77
2023/09/13 00:30:58;;;;;;;7.20;6.07;;;16.20;99.90;;;;;;5226086;28;20017;-77
2023/09/13 00:33:29;;;;;;;7.70;5.88;;;16.10;99.90;;;;;;5225740;28;20025;-75
2023/09/13 00:36:00;;;;;;;7.20;5.60;;;16.10;99.90;;;;;;5227509;28;20468;-77
2023/09/13 00:38:31;;;;;;;6.22;5.40;;;16.00;99.90;;;;;;5227157;28;20031;-77
2023/09/13 00:41:02;;;;;;;6.43;5.60;;;16.00;99.90;;;;;;5226910;28;20057;-77
2023/09/13 00:43:33;;;;;;;5.60;5.10;;;15.90;99.90;;;;;;5227377;28;20540;-77
2023/09/13 00:46:04;;;;;;;6.40;5.43;;;16.00;99.90;;;;;;5231693;28;20066;-74
2023/09/13 00:48:36;;;;;;;6.35;5.85;;;15.80;99.90;;;;;;5230084;28;20029;-75
2023/09/13 00:51:22;;;;;;;6.47;5.88;;;15.90;99.90;;;;;;5230897;28;20484;-75
2023/09/13 00:53:58;;;;;;;6.53;5.93;;;15.60;99.90;;;;;;5230986;28;20028;-74
2023/09/13 00:56:42;;;;;;;6.25;5.65;;;15.90;99.90;;;;;;5229587;28;20541;-75
2023/09/13 00:59:16;;;;;;;6.60;5.88;;;15.80;99.90;;;;;;5230723;28;20411;-75
2023/09/13 01:01:50;;;;;;;7.72;7.03;;;15.80;99.90;;;;;;5229398;28;20033;-76
2023/09/13 01:04:21;;;;;;;6.43;5.82;;;15.90;99.90;;;;;;5230939;28;20060;-77
2023/09/13 01:06:52;;;;;;;7.07;6.40;;;15.80;99.90;;;;;;5230997;28;20048;-75
2023/09/13 01:09:23;;;;;;;6.35;5.75;;;15.90;99.90;;;;;;5229536;28;20064;-76
2023/09/13 01:11:54;;;;;;;6.15;5.70;;;16.00;99.90;;;;;;5229153;28;20041;-77
2023/09/13 01:14:25;;;;;;;7.28;6.65;;;15.90;99.90;;;;;;5230754;28;20057;-75
2023/09/13 01:17:47;;;;;;;7.25;5.68;;;16.00;99.90;;;;;;5230467;28;20017;-78
2023/09/13 01:20:30;;;;;;;6.72;6.13;;;15.70;99.90;;;;;;5205033;28;20431;-75
2023/09/13 01:23:52;;;;;;;6.47;5.53;;;15.80;99.90;;;;;;5229259;28;20072;-77
2023/09/13 01:26:28;;;;;;;5.97;5.57;;;15.90;99.90;;;;;;5197000;28;20044;-74
2023/09/13 01:29:00;;;;;;;6.32;5.55;;;15.80;99.90;;;;;;5230588;28;20021;-77
2023/09/13 01:31:33;;;;;;;7.35;6.65;;;15.70;99.90;;;;;;5230373;28;20074;-76
2023/09/13 01:34:04;;;;;;;6.45;5.85;;;15.90;99.90;;;;;;5230550;28;20396;-75
2023/09/13 01:36:35;;;;;;;6.00;5.50;;;15.80;99.90;;;;;;5230373;28;20029;-76
2023/09/13 01:39:06;;;;;;;6.28;5.43;;;15.90;99.90;;;;;;5230260;28;20029;-76
2023/09/13 01:41:48;;;;;;;6.18;5.60;;;15.80;99.90;;;;;;5230193;28;20112;-76
2023/09/13 01:44:20;;;;;;;7.13;6.45;;;15.90;99.90;;;;;;5228799;28;20037;-77
2023/09/13 01:46:54;;;;;;;6.97;6.38;;;15.70;99.90;;;;;;5230484;28;20028;-77
2023/09/13 01:49:28;;;;;;;6.85;6.25;;;15.80;99.90;;;;;;5228584;28;20025;-74
2023/09/13 01:52:00;;;;;;;6.38;5.88;;;15.90;99.90;;;;;;5230042;28;20029;-75
2023/09/13 01:54:34;;;;;;;6.78;6.15;;;16.00;99.90;;;;;;5229439;28;20029;-77
2023/09/13 01:57:05;;;;;;;7.72;6.43;;;15.60;99.90;;;;;;5230037;28;20029;-78
2023/09/13 01:59:36;;;;;;;7.45;6.75;;;15.60;99.90;;;;;;5228710;28;20013;-77
2023/09/13 02:02:07;;;;;;;7.72;6.55;;;15.60;99.90;;;;;;5230372;28;20439;-78
2023/09/13 02:04:38;;;;;;;6.20;5.70;;;15.80;99.90;;;;;;5229829;28;20092;-77
2023/09/13 02:07:09;;;;;;;6.75;6.10;;;15.50;99.90;;;;;;5228465;28;20029;-78
2023/09/13 02:09:40;;;;;;;8.90;6.65;;;15.50;99.90;;;;;;5229688;28;20037;-76
2023/09/13 02:12:12;;;;;;;7.28;6.50;;;15.70;99.90;;;;;;5228380;28;20032;-77
2023/09/13 02:14:43;;;;;;;6.93;6.22;;;15.30;99.90;;;;;;5229302;28;20053;-75
2023/09/13 02:17:14;;;;;;;8.77;7.93;;;15.40;99.90;;;;;;5228191;28;20036;-75
2023/09/13 02:19:51;;;;;;;9.50;6.82;;;15.50;99.90;;;;;;5228244;28;20034;-76
2023/09/13 02:22:22;;;;;;;7.32;6.72;;;15.50;99.90;;;;;;5228135;28;20068;-76
2023/09/13 02:24:52;;;;;;;7.65;6.95;;;15.60;99.90;;;;;;5229294;28;20455;-77
2023/09/13 02:27:23;;;;;;;6.90;6.22;;;15.60;99.90;;;;;;5227809;28;20546;-74
2023/09/13 02:29:54;;;;;;;7.72;7.10;;;15.40;99.90;;;;;;5229635;28;20029;-75
2023/09/13 02:32:25;;;;;;;7.60;6.22;;;15.50;99.90;;;;;;5228920;28;20032;-75
2023/09/13 02:34:56;;;;;;;7.32;6.50;;;15.30;99.90;;;;;;5229234;28;20021;-77
2023/09/13 02:37:28;;;;;;;6.90;6.20;;;15.50;99.90;;;;;;5229172;28;20033;-77
2023/09/13 02:39:58;;;;;;;8.13;7.30;;;15.50;99.90;;;;;;5227755;28;20354;-74
2023/09/13 02:42:29;;;;;;;8.23;7.50;;;15.30;99.90;;;;;;5228912;28;20067;-75
2023/09/13 02:45:00;;;;;;;23.52;7.55;;;15.40;99.90;;;;;;5228857;28;20033;-76
2023/09/13 02:47:33;;;;;;;8.32;6.15;;;15.60;99.90;;;;;;5229089;28;20423;-78
2023/09/13 02:50:05;;;;;;;8.00;6.47;;;15.50;99.90;;;;;;5227689;28;20399;-77
2023/09/13 02:52:36;;;;;;;6.75;6.15;;;15.60;99.90;;;;;;5227618;28;20032;-76
2023/09/13 02:55:07;;;;;;;6.80;6.20;;;15.30;99.90;;;;;;5227549;28;20079;-75
2023/09/13 02:57:38;;;;;;;7.18;6.57;;;15.30;99.90;;;;;;5228903;28;20032;-77
2023/09/13 03:00:09;;;;;;;7.05;6.45;;;15.40;99.90;;;;;;5228777;28;20376;-77
2023/09/13 03:02:40;;;;;;;7.47;6.57;;;15.30;99.90;;;;;;5228904;28;20123;-75
2023/09/13 03:05:11;;;;;;;7.45;6.75;;;15.10;99.90;;;;;;5228238;28;20576;-78
2023/09/13 03:07:42;;;;;;;6.88;6.20;;;14.90;99.90;;;;;;5227859;28;20065;-78
2023/09/13 03:10:13;;;;;;;7.13;6.53;;;15.20;99.90;;;;;;5228395;28;20029;-75
2023/09/13 03:12:44;;;;;;;7.30;6.60;;;15.20;99.90;;;;;;5228452;28;20074;-78
2023/09/13 03:15:15;;;;;;;7.40;6.70;;;15.00;99.90;;;;;;5228214;28;20045;-75
2023/09/13 03:17:45;;;;;;;7.57;6.88;;;15.10;99.90;;;;;;5228492;28;20039;-76
2023/09/13 03:20:16;;;;;;;6.75;6.22;;;15.00;99.90;;;;;;5226948;28;20492;-76
2023/09/13 03:22:47;;;;;;;6.85;6.15;;;14.90;99.90;;;;;;5228336;28;20476;-76
2023/09/13 03:25:18;;;;;;;8.73;6.32;;;15.10;99.90;;;;;;5228234;28;20420;-76
2023/09/13 03:27:49;;;;;;;6.95;6.45;;;15.00;99.90;;;;;;5226539;28;20385;-75
2023/09/13 03:30:20;;;;;;;6.38;5.88;;;15.00;99.90;;;;;;5226852;28;20480;-75
2023/09/13 03:32:51;;;;;;;6.40;5.80;;;15.30;99.90;;;;;;5227383;28;20021;-79
2023/09/13 03:35:21;;;;;;;8.65;6.60;;;15.10;99.90;;;;;;5226358;28;20158;-74
2023/09/13 03:37:52;;;;;;;7.03;6.40;;;15.00;99.90;;;;;;5227437;28;20036;-74
2023/09/13 03:40:23;;;;;;;7.03;6.32;;;15.20;99.90;;;;;;5226688;28;20028;-77
2023/09/13 03:42:54;;;;;;;7.15;6.55;;;15.10;99.90;;;;;;5227527;28;20033;-77
2023/09/13 03:45:25;;;;;;;6.75;6.15;;;15.10;99.90;;;;;;5226155;28;20494;-77
2023/09/13 03:47:56;;;;;;;7.55;6.95;;;15.20;99.90;;;;;;5226317;28;20136;-77
2023/09/13 03:50:27;;;;;;;7.28;6.57;;;14.90;99.90;;;;;;5228017;28;20100;-77
2023/09/13 03:52:58;;;;;;;7.00;6.30;;;15.20;99.90;;;;;;5227682;28;20036;-78
2023/09/13 03:55:28;;;;;;;7.68;6.18;;;15.10;99.90;;;;;;5227674;28;20468;-77
2023/09/13 03:57:59;;;;;;;7.82;6.47;;;14.90;99.90;;;;;;5226382;28;20044;-78
2023/09/13 04:00:30;;;;;;;7.35;6.65;;;15.00;99.90;;;;;;5226300;28;20036;-78
2023/09/13 04:03:02;;;;;;;7.47;6.80;;;14.90;99.90;;;;;;5225953;28;20041;-78
2023/09/13 04:05:33;;;;;;;6.78;6.10;;;14.90;99.90;;;;;;5227611;28;20025;-77
2023/09/13 04:08:04;;;;;;;7.70;7.05;;;15.20;99.90;;;;;;5227495;28;20473;-77
2023/09/13 04:10:35;;;;;;;7.50;6.80;;;15.20;99.90;;;;;;5226426;28;20364;-78
2023/09/13 04:13:06;;;;;;;7.93;7.25;;;15.30;99.90;;;;;;5227478;28;20036;-78
2023/09/13 04:15:37;;;;;;;9.32;7.05;;;15.60;99.90;;;;;;5225934;28;20056;-77
2023/09/13 04:18:08;;;;;;;9.32;7.50;;;15.70;99.90;;;;;;5228718;28;20029;-78
2023/09/13 04:20:41;;;;;;;9.32;6.57;;;15.80;99.90;;;;;;5209977;28;20509;-77
2023/09/13 04:23:12;;;;;;;7.75;7.15;;;15.90;99.90;;;;;;5211050;28;20049;-77
2023/09/13 04:25:43;;;;;;;7.43;6.70;;;15.90;99.90;;;;;;5210133;28;20369;-77
2023/09/13 04:28:14;;;;;;;7.72;7.03;;;16.00;99.90;;;;;;5209760;28;20029;-78
2023/09/13 04:30:45;;;;;;;7.72;6.80;;;16.00;99.90;;;;;;5226025;28;20918;-78
2023/09/13 04:33:16;;;;;;;7.57;6.72;;;16.00;99.90;;;;;;5210856;28;20021;-78
2023/09/13 04:35:47;;;;;;;7.80;7.10;;;16.00;99.90;;;;;;5226015;28;20044;-78
2023/09/13 04:38:18;;;;;;;7.75;7.10;;;16.10;99.90;;;;;;5210853;28;20017;-78
2023/09/13 04:40:48;;;;;;;7.57;6.88;;;16.20;99.90;;;;;;5210829;28;20452;-78
2023/09/13 04:43:23;;;;;;;8.05;7.28;;;16.20;99.90;;;;;;5210857;28;20739;-77
2023/09/13 04:45:54;;;;;;;7.32;6.55;;;16.20;99.90;;;;;;5210726;28;20053;-78
2023/09/13 04:48:24;;;;;;;8.10;7.05;;;16.40;99.90;;;;;;5210718;28;20108;-77
2023/09/13 04:50:55;;;;;;;7.63;6.93;;;16.30;99.90;;;;;;5210669;28;20562;-78
2023/09/13 04:53:26;;;;;;;7.82;7.07;;;16.30;99.90;;;;;;5210558;28;20111;-78
2023/09/13 04:55:57;;;;;;;8.07;7.28;;;16.40;99.90;;;;;;5210701;28;20477;-78
2023/09/13 04:58:29;;;;;;;8.18;7.38;;;16.40;99.90;;;;;;5209275;28;20021;-78
2023/09/13 05:00:59;;;;;;;10.05;7.18;;;16.50;99.90;;;;;;5210245;28;20025;-77
2023/09/13 05:03:30;;;;;;;8.35;7.55;;;16.60;99.90;;;;;;5210212;28;20083;-78
2023/09/13 05:06:01;;;;;;;7.82;7.13;;;16.70;99.90;;;;;;5210232;28;20539;-78
2023/09/13 05:08:32;;;;;;;7.78;7.18;;;17.10;99.90;;;;;;5210086;28;20118;-78
2023/09/13 05:11:03;;;;;;;7.97;7.18;;;17.10;99.90;;;;;;5229523;28;20056;-78
2023/09/13 05:13:36;;;;;;;8.68;7.80;;;17.00;99.90;;;;;;5229227;28;20040;-77
2023/09/13 05:16:07;;;;;;;7.95;7.25;;;16.90;99.90;;;;;;5229120;28;20033;-78
2023/09/13 05:18:38;;;;;;;9.13;8.13;;;17.00;99.90;;;;;;5229465;28;20025;-77
2023/09/13 05:21:09;;;;;;;8.85;8.05;;;17.30;99.90;;;;;;5230821;28;20028;-78
2023/09/13 05:23:40;;;;;;;9.23;8.30;;;17.30;99.90;;;;;;5230765;28;20047;-77
2023/09/13 05:26:11;;;;;;;9.38;8.55;;;17.40;99.90;;;;;;5230687;28;20468;-77
2023/09/13 05:28:42;;;;;;;10.13;9.20;;;17.50;99.90;;;;;;5229162;28;20032;-78
2023/09/13 05:31:14;;;;;;;9.25;8.45;;;17.50;99.90;;;;;;5229479;28;20112;-78
2023/09/13 05:33:45;;;;;;;11.02;9.65;;;17.80;99.90;;;;;;5229652;28;20031;-78
2023/09/13 05:36:16;;;;;;;9.27;8.38;;;18.00;99.90;;;;;;5229215;28;20017;-78
2023/09/13 05:38:49;;;;;;;10.05;9.05;;;18.00;99.90;;;;;;5230082;28;20094;-78
2023/09/13 05:41:20;;;;;;;8.95;8.23;;;18.00;99.90;;;;;;5228686;28;20379;-78
2023/09/13 05:43:51;;;;;;;9.48;8.57;;;18.30;99.90;;;;;;5230374;28;20036;-78
2023/09/13 05:46:21;;;;;;;8.65;7.85;;;18.50;99.90;;;;;;5228602;28;20358;-78
2023/09/13 05:48:52;;;;;;;10.15;8.10;;;18.40;99.90;;;;;;5230423;28;20480;-77
2023/09/13 05:51:23;;;;;;;10.13;9.23;;;18.60;99.90;;;;;;5230110;28;20079;-78
2023/09/13 05:53:54;;;;;;;9.25;8.45;;;18.70;99.90;;;;;;5230018;28;20055;-78
2023/09/13 05:56:25;;;;;;;9.32;8.52;;;18.80;99.90;;;;;;5228758;28;20028;-78
2023/09/13 05:58:56;;;;;;;10.05;9.05;;;19.00;99.90;;;;;;5229978;28;20033;-77
2023/09/13 06:01:27;;;;;;;12.13;11.02;;;19.10;99.90;;;;;;5229796;28;20661;-77
2023/09/13 06:03:57;;;;;;;11.93;10.82;;;19.40;99.90;;;;;;5229836;28;20029;-77
2023/09/13 06:06:29;;;;;;;16.35;13.60;;;19.50;99.90;;;;;;5228568;28;20370;-77
2023/09/13 06:09:03;;;;;;;16.80;15.30;;;19.60;99.90;;;;;;5228386;28;20433;-77
2023/09/13 06:11:34;;;;;;;19.00;17.63;;;19.90;99.90;;;;;;5228350;28;20491;-78
2023/09/13 06:14:07;;;;;;;19.30;17.80;;;19.90;99.90;;;;;;5229482;28;20124;-78
2023/09/13 06:16:38;;;;;;;19.38;17.98;;;19.80;99.90;;;;;;5228518;28;20032;-77
2023/09/13 06:19:09;;;;;;;18.98;17.58;;;19.70;99.90;;;;;;5229320;28;20546;-78
2023/09/13 06:21:40;;;;;;;21.08;19.58;;;19.80;99.90;;;;;;5229477;28;20025;-77
2023/09/13 06:24:10;;;;;;;20.85;19.25;;;19.90;99.90;;;;;;5228987;28;20037;-77
2023/09/13 06:26:41;;;;;;;19.90;18.58;;;19.70;99.90;;;;;;5229439;28;20024;-77
2023/09/13 06:29:12;;;;;;;18.10;16.70;;;19.80;99.90;;;;;;5228151;28;20033;-77
2023/09/13 06:31:43;;;;;;;20.50;18.98;;;19.80;99.90;;;;;;5229017;28;20033;-77
2023/09/13 06:34:14;;;;;;;20.27;18.73;;;20.00;99.90;;;;;;5229409;28;20742;-77
2023/09/13 06:36:46;;;;;;;21.05;19.48;;;20.10;99.90;;;;;;5227999;28;20472;-78
2023/09/13 06:39:18;;;;;;;22.08;20.58;;;20.20;99.90;;;;;;5227883;28;20480;-77
2023/09/13 06:41:49;;;;;;;23.55;21.85;;;20.20;99.90;;;;;;5226908;28;20033;-77
2023/09/13 06:44:20;;;;;;;21.92;20.40;;;20.40;99.90;;;;;;5227445;28;20033;-77
2023/09/13 06:46:51;;;;;;;21.70;20.23;;;20.60;99.90;;;;;;5227126;28;20392;-78
2023/09/13 06:49:22;;;;;;;22.45;20.77;;;20.90;99.90;;;;;;5227749;28;20484;-77
2023/09/13 06:51:53;;;;;;;20.00;18.50;;;21.20;99.90;;;;;;5227307;28;20021;-77
2023/09/13 06:54:24;;;;;;;20.33;18.92;;;21.20;99.90;;;;;;5227337;28;20052;-77
2023/09/13 06:56:54;;;;;;;17.85;16.65;;;21.40;99.90;;;;;;5227556;28;20021;-77
2023/09/13 06:59:25;;;;;;;15.63;14.60;;;21.40;99.90;;;;;;5228832;28;20036;-77
2023/09/13 07:01:57;;;;;;;14.05;13.05;;;21.60;99.90;;;;;;5227044;28;20040;-77
2023/09/13 07:04:30;;;;;;;12.43;11.43;;;;;;;;;;5228694;28;20029;-77
2023/09/13 07:07:01;;;;;;;9.35;8.57;;;22.20;99.90;;;;;;5227302;28;20049;-77
2023/09/13 07:09:32;;;;;;;11.48;10.25;;;22.30;99.90;;;;;;5227954;28;20125;-77
2023/09/13 07:12:03;;;;;;;9.23;8.32;;;22.40;99.90;;;;;;5228229;28;20108;-78
2023/09/13 07:14:34;;;;;;;9.48;8.60;;;22.60;99.90;;;;;;5226519;28;20468;-77
2023/09/13 07:17:04;;;;;;;9.85;8.10;;;22.60;99.90;;;;;;5228174;28;20110;-77
2023/09/13 07:19:35;;;;;;;9.05;7.60;;;22.80;99.90;;;;;;5227418;28;20021;-77
2023/09/13 07:22:06;;;;;;;9.75;7.82;;;23.00;99.90;;;;;;5226696;28;20040;-77
2023/09/13 07:24:37;;;;;;;7.82;7.05;;;23.10;99.90;;;;;;5226960;28;20068;-77
2023/09/13 07:27:08;;;;;;;8.38;7.57;;;23.20;99.90;;;;;;5226565;28;20075;-77
2023/09/13 07:29:39;;;;;;;8.43;7.70;;;23.40;99.90;;;;;;5226916;28;20658;-77
2023/09/13 07:32:10;;;;;;;8.95;7.90;;;23.60;99.90;;;;;;5228148;28;20087;-78
2023/09/13 07:34:40;;;;;;;9.23;8.52;;;23.70;99.90;;;;;;5227970;28;20539;-77
2023/09/13 07:37:11;;;;;;;10.68;9.77;;;23.90;99.90;;;;;;5228001;28;20407;-77
2023/09/13 07:39:42;;;;;;;11.88;10.98;;;24.10;99.90;;;;;;5228542;28;20852;-77
2023/09/13 07:42:13;;;;;;;12.20;11.35;;;24.30;99.90;;;;;;5226492;28;20556;-77
2023/09/13 07:44:44;;;;;;;11.20;10.40;;;24.10;99.90;;;;;;5227896;28;20104;-77
2023/09/13 07:47:15;;;;;;;10.40;9.55;;;24.30;99.90;;;;;;5227509;28;20036;-79
2023/09/13 07:49:46;;;;;;;8.88;8.20;;;24.50;99.90;;;;;;5227902;28;20029;-77
2023/09/13 07:52:16;;;;;;;7.57;6.97;;;24.60;99.90;;;;;;5227981;28;20041;-77
2023/09/13 07:54:47;;;;;;;7.00;6.40;;;24.70;99.90;;;;;;5226214;28;20079;-77
2023/09/13 07:57:18;;;;;;;10.02;7.97;;;24.80;99.90;;;;;;5227748;28;20031;-78
2023/09/13 07:59:49;;;;;;;8.50;7.80;;;24.80;99.90;;;;;;5227701;28;20788;-77
2023/09/13 08:02:20;;;;;;;10.63;9.70;;;24.70;99.90;;;;;;5226091;28;20033;-77
2023/09/13 08:04:52;;;;;;;8.57;6.35;;;24.90;99.90;;;;;;5227614;28;20045;-77
2023/09/13 08:07:23;;;;;;;6.35;5.75;;;25.00;99.90;;;;;;5227148;28;20439;-78
2023/09/13 08:09:54;;;;;;;5.47;5.07;;;24.90;99.90;;;;;;5227567;28;20021;-77
2023/09/13 08:12:25;;;;;;;5.97;5.35;;;25.00;99.90;;;;;;5226287;28;20025;-77
2023/09/13 08:14:56;;;;;;;13.40;9.90;;;25.00;99.90;;;;;;5227316;28;20060;-77
2023/09/13 08:17:27;;;;;;;8.85;7.63;;;25.20;99.90;;;;;;5227556;28;20123;-77
2023/09/13 08:19:58;;;;;;;8.82;7.95;;;25.30;99.90;;;;;;5225701;28;20112;-77
2023/09/13 08:22:28;;;;;;;8.40;7.70;;;25.40;99.90;;;;;;5227596;28;20037;-77
2023/09/13 08:24:59;;;;;;;8.23;7.72;;;25.20;99.90;;;;;;5227713;28;20071;-77
2023/09/13 08:27:31;;;;;;;9.18;8.20;;;25.50;99.90;;;;;;5227304;28;20029;-77
2023/09/13 08:30:03;;;;;;;8.77;7.82;;;25.60;99.90;;;;;;5227558;28;20376;-77
2023/09/13 08:32:35;;;;;;;7.55;6.95;;;25.60;99.90;;;;;;5227527;28;20029;-78
2023/09/13 08:35:06;;;;;;;7.85;7.32;;;25.40;99.90;;;;;;5227393;28;20013;-77
2023/09/13 08:37:37;;;;;;;7.25;6.75;;;25.50;99.90;;;;;;5227240;28;20033;-78
2023/09/13 08:40:09;;;;;;;7.90;7.20;;;25.40;99.90;;;;;;5227132;28;20032;-77
2023/09/13 08:42:41;;;;;;;6.18;5.78;;;25.50;99.90;;;;;;5227399;28;20041;-77
2023/09/13 08:45:13;;;;;;;6.18;5.78;;;25.50;99.90;;;;;;5226998;28;20096;-78
2023/09/13 08:47:46;;;;;;;13.40;7.72;;;25.70;99.90;;;;;;5227179;28;20032;-78
2023/09/13 08:50:23;;;;;;;7.32;6.63;;;25.80;99.90;;;;;;5215041;28;20457;-78
2023/09/13 08:52:56;;;;;;;6.80;6.22;;;25.70;99.90;;;;;;5206571;28;20744;-78
2023/09/13 08:55:28;;;;;;;6.18;5.57;;;25.90;99.90;;;;;;5225278;28;20029;-78
2023/09/13 08:58:02;;;;;;;6.45;5.95;;;25.90;99.90;;;;;;5225861;28;20033;-78
2023/09/13 09:00:40;;;;;;;6.60;6.20;;;26.10;99.90;;;;;;5225629;28;20021;-78
2023/09/13 09:03:13;;;;;;;7.97;7.00;;;26.20;99.90;;;;;;5221178;28;20026;-78
2023/09/13 09:05:45;;;;;;;6.70;6.20;;;26.00;99.90;;;;;;5208488;28;20025;-78
2023/09/13 09:08:17;;;;;;;9.93;6.32;;;26.20;99.90;;;;;;5210342;28;20021;-80
2023/09/13 09:10:52;;;;;;;7.32;6.65;;;26.30;99.90;;;;;;5209130;28;20080;-77
2023/09/13 09:13:25;;;;;;;7.30;6.70;;;26.10;99.90;;;;;;5208895;28;20065;-77
2023/09/13 09:15:58;;;;;;;8.48;7.88;;;26.20;99.90;;;;;;5208521;28;20132;-78
2023/09/13 09:18:33;;;;;;;7.32;6.57;;;26.40;99.90;;;;;;5214013;28;20067;-77
2023/09/13 09:21:05;;;;;;;7.18;6.53;;;26.40;99.90;;;;;;5230512;28;20021;-78
2023/09/13 09:23:38;;;;;;;8.05;7.53;;;26.50;99.90;;;;;;5230557;28;20033;-77
2023/09/13 09:26:09;;;;;;;7.68;7.07;;;26.60;99.90;;;;;;5230190;28;20021;-78
2023/09/13 09:28:40;;;;;;;9.93;9.13;;;26.70;99.90;;;;;;5230292;28;20742;-78
2023/09/13 09:31:12;;;;;;;11.15;10.25;;;26.70;99.90;;;;;;5230258;28;20025;-78
2023/09/13 09:33:43;;;;;;;9.15;8.43;;;26.70;99.90;;;;;;5230253;28;20013;-78
2023/09/13 09:38:55;;;;;;;8.55;7.97;;;26.80;99.90;;;;;;5511471;22;20058;-78
2023/09/13 09:41:32;;;;;;;8.05;7.55;;;26.90;99.90;;;;;;5188956;28;20050;-78
2023/09/13 09:44:04;;;;;;;7.53;6.93;;;26.80;99.90;;;;;;5189148;28;20026;-78
2023/09/13 09:46:35;;;;;;;8.02;7.32;;;26.90;99.90;;;;;;5189106;28;20026;-78
2023/09/13 09:49:06;;;;;;;9.93;8.93;;;26.90;99.90;;;;;;5188863;28;20496;-77
2023/09/13 09:51:38;;;;;;;8.77;8.07;;;27.00;99.90;;;;;;5187632;28;20033;-77
2023/09/13 09:54:09;;;;;;;7.80;7.20;;;27.10;99.90;;;;;;5189041;28;20026;-78
2023/09/13 09:56:41;;;;;;;8.40;7.63;;;27.00;99.90;;;;;;5188792;28;20030;-78
2023/09/13 09:59:12;;;;;;;8.25;7.65;;;27.30;99.90;;;;;;5187600;28;20079;-77
2023/09/13 10:01:45;;;;;;;8.00;7.32;;;27.10;99.90;;;;;;5187546;28;20033;-78
2023/09/13 10:04:16;;;;;;;10.25;8.23;;;27.20;99.90;;;;;;5187566;28;20389;-78
2023/09/13 10:07:03;;;;;;;9.45;8.85;;;27.20;99.90;;;;;;5188434;28;20034;-78
2023/09/13 10:09:41;;;;;;;11.15;10.45;;;27.10;99.90;;;;;;5168372;28;20414;-77
2023/09/13 10:12:13;;;;;;;9.85;9.20;;;27.20;99.90;;;;;;5168400;28;20033;-77
2023/09/13 10:14:45;;;;;;;10.95;10.25;;;27.30;99.90;;;;;;5168212;28;20023;-78
2023/09/13 10:17:17;;;;;;;12.93;12.23;;;27.40;99.90;;;;;;5167997;28;20505;-77
2023/09/13 10:19:51;;;;;;;13.18;12.38;;;27.50;99.90;;;;;;5167032;28;20496;-78
2023/09/13 10:22:25;;;;;;;10.85;10.18;;;27.50;99.90;;;;;;5167823;28;20096;-78
2023/09/13 10:25:03;;;;;;;8.70;8.15;;;27.40;99.90;;;;;;5168183;28;20030;-78
2023/09/13 10:27:35;;;;;;;9.45;8.80;;;27.50;99.90;;;;;;5166819;28;20030;-78
2023/09/13 10:30:10;;;;;;;10.18;9.57;;;27.50;99.90;;;;;;5166772;28;20026;-78
2023/09/13 10:32:46;;;;;;;12.00;11.10;;;27.60;99.90;;;;;;5166398;28;20034;-77
2023/09/13 10:35:19;;;;;;;10.77;10.18;;;27.60;99.90;;;;;;5168097;28;20462;-78
2023/09/13 10:38:06;;;;;;;10.82;10.02;;;27.40;99.90;;;;;;5167483;28;20046;-77
2023/09/13 10:41:03;;;;;;;11.32;10.63;;;27.60;99.90;;;;;;5167730;28;20037;-78
2023/09/13 10:43:34;;;;;;;12.57;11.77;;;27.60;99.90;;;;;;5166183;28;20457;-78
2023/09/13 10:46:06;;;;;;;12.10;11.32;;;27.70;99.90;;;;;;5167529;28;20033;-78
2023/09/13 10:48:39;;;;;;;11.85;11.07;;;27.60;99.90;;;;;;5166389;28;20552;-77
2023/09/13 10:51:12;;;;;;;10.73;9.95;;;27.90;99.90;;;;;;5166359;28;20023;-78
2023/09/13 10:53:45;;;;;;;11.00;10.27;;;27.80;99.90;;;;;;5167532;28;20034;-77
2023/09/13 10:56:18;;;;;;;9.88;9.00;;;27.80;99.90;;;;;;5167564;28;20014;-77
2023/09/13 10:58:50;;;;;;;10.05;9.25;;;27.90;99.90;;;;;;5166260;28;20426;-78
2023/09/13 11:01:22;;;;;;;9.82;8.95;;;28.00;99.90;;;;;;5166102;28;20046;-78
2023/09/13 11:03:54;;;;;;;8.38;7.75;;;27.90;99.90;;;;;;5165794;28;20449;-77
2023/09/13 11:06:26;;;;;;;7.97;7.47;;;28.10;99.90;;;;;;5167400;28;20050;-78
2023/09/13 11:09:14;;;;;;;9.98;8.18;;;28.20;99.90;;;;;;5165710;28;20036;-78
2023/09/13 11:11:52;;;;;;;9.73;8.63;;;28.20;99.90;;;;;;5162997;28;20820;-78
2023/09/13 11:14:28;;;;;;;9.10;8.40;;;28.20;99.90;;;;;;5165925;28;20116;-78
2023/09/13 11:17:39;;;;;;;7.85;7.20;;;28.20;99.90;;;;;;5167055;28;20501;-78
2023/09/13 11:20:35;;;;;;;10.15;9.35;;;28.20;99.90;;;;;;5167005;28;20023;-78
2023/09/13 11:23:12;;;;;;;9.57;8.98;;;28.20;99.90;;;;;;5166841;28;20031;-78
2023/09/13 11:25:54;;;;;;;10.38;9.77;;;28.20;99.90;;;;;;5166999;28;20072;-77
2023/09/13 11:28:37;;;;;;;11.15;10.35;;;28.20;99.90;;;;;;5166370;28;20054;-78
2023/09/13 11:31:09;;;;;;;10.98;10.27;;;28.30;99.90;;;;;;5166906;28;20105;-78
2023/09/13 11:33:59;;;;;;;10.35;9.68;;;28.10;99.90;;;;;;5165463;28;20026;-78
2023/09/13 11:36:31;;;;;;;10.52;9.85;;;28.10;99.90;;;;;;5166593;28;20038;-78
2023/09/13 11:39:05;;;;;;;9.68;9.07;;;28.30;99.90;;;;;;5165250;28;20423;-77
2023/09/13 11:41:39;;;;;;;12.25;11.27;;;28.20;99.90;;;;;;5166585;28;20018;-78
2023/09/13 11:44:10;;;;;;;10.93;10.05;;;27.60;99.90;;;;;;5165152;28;20486;-77
2023/09/13 11:46:41;;;;;;;11.63;10.63;;;28.10;99.90;;;;;;5166745;28;20026;-78
2023/09/13 11:49:22;;;;;;;10.77;10.07;;;28.30;99.90;;;;;;5166715;28;20085;-78
2023/09/13 11:51:57;;;;;;;11.70;10.90;;;28.20;99.90;;;;;;5166922;28;20036;-78
2023/09/13 11:54:28;;;;;;;11.13;10.50;;;28.10;99.90;;;;;;5166573;28;20542;-78
2023/09/13 11:57:03;;;;;;;11.52;10.70;;;28.30;99.90;;;;;;5166330;28;20117;-78
2023/09/13 11:59:34;;;;;;;9.73;9.07;;;28.30;99.90;;;;;;5165277;28;20478;-78
2023/09/13 12:02:11;;;;;;;10.35;9.55;;;28.30;99.90;;;;;;5166118;28;20037;-78
2023/09/13 12:04:44;;;;;;;17.15;11.23;;;28.10;99.90;;;;;;5166298;28;20027;-79
2023/09/13 12:07:18;;;;;;;11.60;10.63;;;28.20;99.90;;;;;;5165963;28;20034;-78
2023/09/13 12:09:58;;;;;;;11.95;11.00;;;28.10;99.90;;;;;;5166252;28;20439;-78
2023/09/13 12:12:41;;;;;;;10.70;9.80;;;28.20;99.90;;;;;;5166142;28;20028;-78
2023/09/13 12:15:24;;;;;;;11.25;10.35;;;28.30;99.90;;;;;;5165894;28;20022;-78
2023/09/13 12:18:03;;;;;;;12.23;11.32;;;28.20;99.90;;;;;;5146008;28;20051;-78
2023/09/13 12:20:39;;;;;;;9.55;8.88;;;28.40;99.90;;;;;;5145029;28;20142;-78
2023/09/13 12:23:17;;;;;;;11.18;10.35;;;28.40;99.90;;;;;;5167101;28;20046;-79
2023/09/13 12:26:09;;;;;;;10.25;9.45;;;28.30;99.90;;;;;;5166147;28;20032;-79
2023/09/13 12:28:45;;;;;;;9.35;8.73;;;28.40;99.90;;;;;;5181741;28;20030;-79
2023/09/13 12:31:22;;;;;;;10.00;9.30;;;28.40;99.90;;;;;;5171149;28;20029;-78
2023/09/13 12:33:55;;;;;;;10.82;10.10;;;28.20;99.90;;;;;;5173778;28;20034;-79
2023/09/13 12:36:27;;;;;;;10.95;10.25;;;28.20;99.90;;;;;;5185654;28;20037;-79
2023/09/13 12:38:59;;;;;;;10.20;9.50;;;28.20;99.90;;;;;;5185698;28;20070;-79
2023/09/13 12:41:33;;;;;;;9.43;8.75;;;28.30;99.90;;;;;;5188902;28;20537;-78
2023/09/13 12:44:04;;;;;;;9.82;9.23;;;28.30;99.90;;;;;;5188819;28;20032;-78
2023/09/13 12:46:37;;;;;;;10.05;9.30;;;28.30;99.90;;;;;;5190295;28;20026;-78
2023/09/13 12:49:11;;;;;;;11.07;10.23;;;28.10;99.90;;;;;;5188893;28;20029;-78
2023/09/13 12:51:42;;;;;;;11.70;10.70;;;28.00;99.90;;;;;;5190196;28;20018;-78
2023/09/13 12:54:14;;;;;;;10.57;9.48;;;28.20;99.90;;;;;;5188671;28;20437;-78
2023/09/13 12:56:45;;;;;;;9.90;9.20;;;28.30;99.90;;;;;;5190041;28;20076;-78
2023/09/13 12:59:16;;;;;;;9.55;8.95;;;28.30;99.90;;;;;;5189165;28;20030;-79
2023/09/13 13:01:54;;;;;;;10.88;9.30;;;28.30;99.90;;;;;;5168279;28;20026;-78
2023/09/13 13:04:30;;;;;;;11.30;10.43;;;28.30;99.90;;;;;;5169608;28;20669;-78
2023/09/13 13:07:02;;;;;;;10.63;9.50;;;28.20;99.90;;;;;;5167971;28;20133;-79
2023/09/13 13:09:33;;;;;;;10.48;9.77;;;28.10;99.90;;;;;;5167808;28;20474;-78
2023/09/13 13:12:05;;;;;;;10.32;9.43;;;28.20;99.90;;;;;;5184976;28;20022;-78
2023/09/13 13:14:36;;;;;;;10.18;9.38;;;28.10;99.90;;;;;;5188178;28;20457;-77